Time;durP1;ratioP1;P1;durP2;ratioP2;P2;SDS_P1;SDS_P2;PMS_P1;PMS_P2;Temp;Humidity;BMP_temperature;BMP_pressure;BME280_temperature;BME280_humidity;BME280_pressure;Samples;Min_cycle;Max_cycle;Signal;HPM_P1;HPM_P2
2021/08/13 00:01:39;;;;;;;20.88;13.45;;;;;;;;;;6279559;22;20305;-82
2021/08/13 00:04:06;;;;;;;18.60;12.85;;;;;;;;;;6256502;22;20024;-82
2021/08/13 00:06:33;;;;;;;16.73;12.07;;;;;;;;;;6277807;22;20031;-83
2021/08/13 00:08:59;;;;;;;17.08;12.80;;;;;;;;;;6277513;22;20023;-83
2021/08/13 00:11:26;;;;;;;21.50;12.93;;;;;;;;;;6276759;22;20027;-83
2021/08/13 00:13:53;;;;;;;20.05;12.15;;;;;;;;;;6251063;22;20027;-83
2021/08/13 00:16:20;;;;;;;18.83;12.82;;;;;;;;;;6277500;22;20408;-83
2021/08/13 00:18:50;;;;;;;20.95;13.57;;;;;;;;;;6251747;22;20275;-83
2021/08/13 00:21:16;;;;;;;17.70;12.63;;;;;;;;;;6277716;22;20432;-84
2021/08/13 00:23:43;;;;;;;23.05;13.43;;;;;;;;;;6278023;22;20039;-83
2021/08/13 00:26:10;;;;;;;19.63;12.75;;;;;;;;;;6279302;22;20284;-82
2021/08/13 00:28:37;;;;;;;16.00;11.82;;;;;;;;;;6280553;22;20036;-82
2021/08/13 00:31:03;;;;;;;16.30;12.85;;;;;;;;;;6250828;22;20050;-83
2021/08/13 00:33:39;;;;;;;21.00;12.95;;;;;;;;;;6250921;22;20089;-83
2021/08/13 00:36:06;;;;;;;17.85;13.15;;;;;;;;;;6249661;22;20111;-82
2021/08/13 00:38:33;;;;;;;17.13;12.73;;;;;;;;;;6275840;22;20069;-83
2021/08/13 00:40:59;;;;;;;18.58;13.02;;;;;;;;;;6276461;22;20075;-83
2021/08/13 00:43:27;;;;;;;17.92;12.32;;;;;;;;;;6276373;22;20085;-83
2021/08/13 00:45:53;;;;;;;18.70;14.05;;;;;;;;;;6248366;22;20087;-84
2021/08/13 00:48:20;;;;;;;18.30;13.07;;;;;;;;;;6276780;22;20111;-83
2021/08/13 00:50:47;;;;;;;22.75;13.25;;;;;;;;;;6280446;22;20035;-83
2021/08/13 00:53:14;;;;;;;22.35;14.18;;;;;;;;;;6294736;22;20072;-83
2021/08/13 00:55:41;;;;;;;20.48;13.30;;;;;;;;;;6269087;22;20027;-83
2021/08/13 00:58:09;;;;;;;20.00;13.70;;;;;;;;;;6278493;22;20024;-83
2021/08/13 01:00:36;;;;;;;22.70;13.93;;;;;;;;;;6294749;22;20043;-83
2021/08/13 01:03:04;;;;;;;19.42;13.55;;;;;;;;;;6267254;22;20358;-83
2021/08/13 01:05:30;;;;;;;20.60;14.25;;;;;;;;;;6279924;22;20122;-84
2021/08/13 01:07:57;;;;;;;17.45;13.38;;;;;;;;;;6278024;22;20042;-84
2021/08/13 01:10:24;;;;;;;23.73;14.30;;;;;;;;;;6249070;22;20051;-84
2021/08/13 01:13:10;;;;;;;22.10;13.25;;;;;;;;;;6248912;22;20062;-83
2021/08/13 01:15:40;;;;;;;17.70;13.18;;;;;;;;;;6273432;22;20091;-84
2021/08/13 01:18:23;;;;;;;22.77;13.02;;;;;;;;;;6250200;22;20035;-84
2021/08/13 01:21:08;;;;;;;23.55;13.30;;;;;;;;;;6275947;22;20071;-84
2021/08/13 01:23:46;;;;;;;17.88;12.98;;;;;;;;;;6276257;22;20023;-83
2021/08/13 01:26:13;;;;;;;25.27;13.73;;;;;;;;;;6276936;22;20028;-81
2021/08/13 01:28:48;;;;;;;21.95;13.68;;;;;;;;;;6276467;22;20162;-82
2021/08/13 01:31:25;;;;;;;20.15;13.18;;;;;;;;;;6274628;22;20024;-82
2021/08/13 01:33:55;;;;;;;21.77;14.02;;;;;;;;;;6275829;22;20413;-82
2021/08/13 01:36:22;;;;;;;23.27;15.27;;;;;;;;;;6277234;22;20024;-82
2021/08/13 01:38:50;;;;;;;20.80;15.52;;;;;;;;;;6249767;22;20126;-82
2021/08/13 01:41:18;;;;;;;24.45;16.13;;;;;;;;;;6277459;22;20118;-82
2021/08/13 01:43:49;;;;;;;19.08;14.80;;;;;;;;;;6279193;22;20024;-82
2021/08/13 01:46:16;;;;;;;20.52;15.93;;;;;;;;;;6282517;22;20100;-82
2021/08/13 01:48:43;;;;;;;22.20;14.77;;;;;;;;;;6272627;22;20007;-82
2021/08/13 01:51:14;;;;;;;24.00;14.43;;;;;;;;;;6290022;22;20106;-82
2021/08/13 01:53:42;;;;;;;19.73;13.95;;;;;;;;;;6279477;22;20048;-82
2021/08/13 01:56:12;;;;;;;25.80;15.15;;;;;;;;;;6278790;22;20102;-82
2021/08/13 01:58:39;;;;;;;21.75;15.43;;;;;;;;;;6272529;22;20023;-82
2021/08/13 02:01:06;;;;;;;20.85;13.57;;;;;;;;;;6281961;22;20047;-83
2021/08/13 02:03:33;;;;;;;27.00;17.65;;;;;;;;;;6247588;22;20423;-82
2021/08/13 02:06:00;;;;;;;26.25;16.90;;;;;;;;;;6276522;22;20098;-82
2021/08/13 02:08:27;;;;;;;23.95;15.43;;;;;;;;;;6250541;22;20114;-83
2021/08/13 02:10:54;;;;;;;37.17;16.27;;;;;;;;;;6276627;22;20066;-83
2021/08/13 02:13:20;;;;;;;24.92;16.83;;;;;;;;;;6277381;22;20028;-84
2021/08/13 02:15:59;;;;;;;27.45;16.00;;;;;;;;;;6287772;22;20251;-84
2021/08/13 02:18:27;;;;;;;23.75;16.17;;;;;;;;;;6298618;22;20039;-84
2021/08/13 02:21:01;;;;;;;27.33;18.52;;;;;;;;;;6292173;22;20051;-84
2021/08/13 02:23:28;;;;;;;28.00;20.02;;;;;;;;;;6255415;22;20032;-84
2021/08/13 02:25:54;;;;;;;28.98;17.77;;;;;;;;;;6276235;22;20309;-83
2021/08/13 02:28:21;;;;;;;26.40;19.02;;;;;;;;;;6275842;22;20245;-83
2021/08/13 02:30:48;;;;;;;25.52;17.50;;;;;;;;;;6275780;22;20062;-83
2021/08/13 02:33:14;;;;;;;24.23;17.48;;;;;;;;;;6276934;22;20024;-83
2021/08/13 02:35:43;;;;;;;25.13;18.33;;;;;;;;;;6278890;22;20109;-83
2021/08/13 02:38:13;;;;;;;31.13;18.52;;;;;;;;;;6278853;22;20106;-82
2021/08/13 02:40:49;;;;;;;30.13;18.60;;;;;;;;;;6276954;22;20024;-83
2021/08/13 02:43:16;;;;;;;;;;;;;;;;;;6248955;22;20031;-82
2021/08/13 02:45:42;;;;;;;;;;;;;;;;;;6252494;22;20185;-82
2021/08/13 02:48:09;;;;;;;28.85;17.30;;;;;;;;;;6278506;22;19915;-82
2021/08/13 02:50:40;;;;;;;26.70;18.00;;;;;;;;;;6252552;22;20050;-82
2021/08/13 02:53:09;;;;;;;28.90;19.70;;;;;;;;;;6279793;22;20038;-82
2021/08/13 02:55:39;;;;;;;32.70;19.85;;;;;;;;;;6280819;22;20027;-82
2021/08/13 02:58:08;;;;;;;33.38;19.70;;;;;;;;;;6281145;22;20572;-83
2021/08/13 03:00:37;;;;;;;31.27;20.80;;;;;;;;;;6280394;22;20335;-82
2021/08/13 03:03:04;;;;;;;30.83;19.98;;;;;;;;;;6276918;22;20208;-82
2021/08/13 03:05:32;;;;;;;31.67;19.95;;;;;;;;;;6250916;22;20024;-84
2021/08/13 03:07:59;;;;;;;29.75;18.88;;;;;;;;;;6277367;22;20034;-83
2021/08/13 03:10:25;;;;;;;30.27;20.23;;;;;;;;;;6277516;22;20123;-83
2021/08/13 03:12:52;;;;;;;28.70;19.33;;;;;;;;;;6276893;22;20263;-83
2021/08/13 03:15:21;;;;;;;31.83;19.00;;;;;;;;;;6275023;22;20062;-83
2021/08/13 03:17:50;;;;;;;33.55;19.00;;;;;;;;;;6274442;22;20027;-83
2021/08/13 03:20:18;;;;;;;28.15;19.95;;;;;;;;;;6246984;22;20031;-83
2021/08/13 03:22:44;;;;;;;25.27;18.98;;;;;;;;;;6276454;22;20129;-83
2021/08/13 03:25:15;;;;;;;32.28;20.25;;;;;;;;;;6283534;22;20024;-83
2021/08/13 03:27:45;;;;;;;32.67;21.52;;;;;;;;;;6281766;22;20038;-82
2021/08/13 03:30:13;;;;;;;37.42;22.30;;;;;;;;;;6279713;22;20550;-83
2021/08/13 03:32:39;;;;;;;35.00;21.98;;;;;;;;;;6280027;22;20031;-83
2021/08/13 03:35:06;;;;;;;32.47;21.60;;;;;;;;;;6269575;22;20023;-83
2021/08/13 03:37:36;;;;;;;32.00;21.67;;;;;;;;;;6291805;22;20050;-84
2021/08/13 03:40:04;;;;;;;38.50;23.13;;;;;;;;;;6281572;22;20024;-83
2021/08/13 03:42:31;;;;;;;34.38;21.85;;;;;;;;;;6278584;22;20046;-83
2021/08/13 03:45:01;;;;;;;37.80;21.02;;;;;;;;;;6252551;22;20421;-83
2021/08/13 03:47:28;;;;;;;40.20;23.55;;;;;;;;;;6253545;22;20019;-83
2021/08/13 03:49:55;;;;;;;38.75;23.35;;;;;;;;;;6254442;22;20139;-84
2021/08/13 03:52:22;;;;;;;36.13;22.92;;;;;;;;;;6252429;22;20043;-82
2021/08/13 03:54:51;;;;;;;36.67;22.83;;;;;;;;;;6250959;22;20057;-83
2021/08/13 03:57:20;;;;;;;34.80;23.45;;;;;;;;;;6251793;22;20286;-83
2021/08/13 03:59:47;;;;;;;31.23;21.25;;;;;;;;;;6252238;22;20032;-82
2021/08/13 04:02:14;;;;;;;36.60;22.45;;;;;;;;;;6276242;22;20055;-82
2021/08/13 04:04:41;;;;;;;37.17;23.38;;;;;;;;;;6251152;22;20055;-83
2021/08/13 04:07:07;;;;;;;33.70;21.60;;;;;;;;;;6251739;22;20035;-83
2021/08/13 04:09:34;;;;;;;42.00;24.35;;;;;;;;;;6250048;22;20043;-83
2021/08/13 04:12:01;;;;;;;32.38;23.33;;;;;;;;;;6289927;22;20090;-82
2021/08/13 04:14:28;;;;;;;37.60;23.25;;;;;;;;;;6294472;22;20027;-82
2021/08/13 04:16:55;;;;;;;35.58;23.63;;;;;;;;;;6282526;22;20020;-83
2021/08/13 04:19:22;;;;;;;32.70;23.23;;;;;;;;;;6279740;22;20024;-82
2021/08/13 04:21:49;;;;;;;36.78;24.42;;;;;;;;;;6276082;22;20447;-83
2021/08/13 04:24:18;;;;;;;40.70;24.80;;;;;;;;;;6278101;22;20023;-82
2021/08/13 04:26:48;;;;;;;34.97;24.45;;;;;;;;;;6250592;22;20066;-83
2021/08/13 04:29:14;;;;;;;32.47;22.70;;;;;;;;;;6278065;22;20264;-82
2021/08/13 04:31:41;;;;;;;30.52;21.25;;;;;;;;;;6277712;22;20085;-82
2021/08/13 04:34:08;;;;;;;31.85;23.35;;;;;;;;;;6249490;22;20034;-82
2021/08/13 04:36:35;;;;;;;35.00;23.27;;;;;;;;;;6256032;22;20326;-82
2021/08/13 04:39:03;;;;;;;29.20;21.50;;;;;;;;;;6238151;22;20015;-82
2021/08/13 04:41:30;;;;;;;32.20;21.63;;;;;;;;;;6238551;23;20035;-83
2021/08/13 04:43:57;;;;;;;32.28;22.42;;;;;;;;;;6246954;23;20043;-83
2021/08/13 04:46:23;;;;;;;33.42;22.27;;;;;;;;;;6222770;23;20106;-83
2021/08/13 04:48:50;;;;;;;31.50;20.98;;;;;;;;;;6259311;22;20070;-83
2021/08/13 04:51:23;;;;;;;27.63;21.02;;;;;;;;;;6235196;23;20031;-81
2021/08/13 04:53:50;;;;;;;30.52;19.75;;;;;;;;;;6231162;23;20020;-81
2021/08/13 04:56:16;;;;;;;31.08;20.63;;;;;;;;;;6232872;23;20027;-83
2021/08/13 04:58:44;;;;;;;34.20;20.98;;;;;;;;;;6223051;23;20024;-83
2021/08/13 05:01:11;;;;;;;34.22;20.27;;;;;;;;;;6243251;23;20071;-84
2021/08/13 05:03:38;;;;;;;29.58;21.27;;;;;;;;;;6216466;23;20043;-84
2021/08/13 05:06:05;;;;;;;32.70;20.83;;;;;;;;;;6216655;23;20343;-83
2021/08/13 05:08:35;;;;;;;25.35;18.55;;;;;;;;;;6244573;23;20076;-83
2021/08/13 05:11:02;;;;;;;29.00;17.27;;;;;;;;;;6219886;23;20076;-84
2021/08/13 05:13:30;;;;;;;22.83;15.80;;;;;;;;;;6233915;23;20264;-83
2021/08/13 05:15:56;;;;;;;23.83;15.18;;;;;;;;;;6221388;23;20124;-83
2021/08/13 05:18:24;;;;;;;21.70;16.05;;;;;;;;;;6217703;23;20051;-83
2021/08/13 05:20:50;;;;;;;23.63;15.70;;;;;;;;;;6218535;23;20031;-83
2021/08/13 05:23:17;;;;;;;21.48;14.93;;;;;;;;;;6245725;23;20084;-83
2021/08/13 05:25:44;;;;;;;26.65;15.10;;;;;;;;;;6249139;23;20032;-82
2021/08/13 05:28:11;;;;;;;23.70;14.82;;;;;;;;;;6252291;23;20028;-83
2021/08/13 05:30:38;;;;;;;24.70;15.23;;;;;;;;;;6224491;23;20142;-84
2021/08/13 05:33:10;;;;;;;21.73;15.30;;;;;;;;;;6249826;23;20194;-82
2021/08/13 05:35:37;;;;;;;25.35;17.02;;;;;;;;;;6230123;22;20433;-82
2021/08/13 05:38:04;;;;;;;26.05;17.13;;;;;;;;;;6277792;22;20046;-82
2021/08/13 05:40:31;;;;;;;23.33;15.85;;;;;;;;;;6276663;22;20054;-83
2021/08/13 05:42:59;;;;;;;25.08;16.75;;;;;;;;;;6246594;22;20047;-81
2021/08/13 05:45:26;;;;;;;20.45;14.75;;;;;;;;;;6246639;22;20402;-82
2021/08/13 05:47:53;;;;;;;23.38;16.60;;;;;;;;;;6245963;22;20263;-82
2021/08/13 05:50:20;;;;;;;22.05;16.05;;;;;;;;;;6272352;22;20019;-83
2021/08/13 05:52:47;;;;;;;22.73;15.52;;;;;;;;;;6272222;22;20085;-83
2021/08/13 05:55:14;;;;;;;19.85;15.38;;;;;;;;;;6271764;22;20060;-83
2021/08/13 05:57:42;;;;;;;20.88;15.65;;;;;;;;;;6244729;22;20134;-81
2021/08/13 06:00:09;;;;;;;18.73;14.57;;;;;;;;;;6271187;22;20024;-81
2021/08/13 06:02:36;;;;;;;20.58;14.05;;;;;;;;;;6269621;22;20298;-83
2021/08/13 06:05:05;;;;;;;20.90;14.63;;;;;;;;;;6244287;22;20019;-83
2021/08/13 06:07:35;;;;;;;17.42;14.20;;;;;;;;;;6260889;22;20038;-83
2021/08/13 06:10:02;;;;;;;19.08;14.27;;;;;;;;;;6262892;22;20054;-84
2021/08/13 06:12:28;;;;;;;21.92;15.00;;;;;;;;;;6273632;22;20028;-82
2021/08/13 06:14:55;;;;;;;22.35;14.90;;;;;;;;;;6247290;22;20409;-83
2021/08/13 06:17:29;;;;;;;21.90;13.43;;;;;;;;;;6250165;22;20162;-82
2021/08/13 06:19:56;;;;;;;23.13;14.57;;;;;;;;;;6269867;22;20020;-83
2021/08/13 06:22:23;;;;;;;21.08;14.55;;;;;;;;;;6272476;22;20098;-82
2021/08/13 06:24:49;;;;;;;20.20;13.73;;;;;;;;;;6271220;22;20023;-82
2021/08/13 06:27:16;;;;;;;17.50;13.32;;;;;;;;;;6248153;22;20026;-83
2021/08/13 06:29:43;;;;;;;26.55;14.52;;;;;;;;;;6276359;22;20027;-83
2021/08/13 06:32:10;;;;;;;20.52;14.70;;;;;;;;;;6272654;22;20023;-83
2021/08/13 06:34:36;;;;;;;23.27;15.23;;;;;;;;;;6272346;22;20019;-83
2021/08/13 06:37:03;;;;;;;20.75;14.48;;;;;;;;;;6270311;22;20097;-83
2021/08/13 06:39:33;;;;;;;19.20;14.00;;;;;;;;;;6269516;22;20023;-83
2021/08/13 06:42:05;;;;;;;26.38;15.30;;;;;;;;;;6270964;22;20138;-85
2021/08/13 06:44:32;;;;;;;18.52;14.75;;;;;;;;;;6246205;22;20241;-82
2021/08/13 06:46:59;;;;;;;16.80;14.07;;;;;;;;;;6241956;22;20272;-83
2021/08/13 06:49:26;;;;;;;21.30;16.10;;;;;;;;;;6246309;22;20064;-84
2021/08/13 06:51:53;;;;;;;22.65;14.30;;;;;;;;;;6246609;22;20031;-83
2021/08/13 06:54:20;;;;;;;18.27;13.77;;;;;;;;;;6244560;22;20034;-82
2021/08/13 06:56:47;;;;;;;25.10;15.18;;;;;;;;;;6272675;22;20058;-83
2021/08/13 06:59:13;;;;;;;20.52;15.70;;;;;;;;;;6244402;22;20023;-83
2021/08/13 07:01:40;;;;;;;28.70;15.60;;;;;;;;;;6270332;22;20024;-83
2021/08/13 07:04:07;;;;;;;23.25;15.50;;;;;;;;;;6240579;22;20192;-84
2021/08/13 07:06:34;;;;;;;21.52;16.63;;;;;;;;;;6268373;22;20277;-82
2021/08/13 07:09:01;;;;;;;18.88;13.95;;;;;;;;;;6269319;22;20028;-82
2021/08/13 07:11:28;;;;;;;19.20;14.32;;;;;;;;;;6250526;22;20071;-83
2021/08/13 07:13:58;;;;;;;19.17;14.38;;;;;;;;;;6270207;22;20190;-83
2021/08/13 07:16:26;;;;;;;19.75;13.90;;;;;;;;;;6272389;22;20237;-84
2021/08/13 07:18:53;;;;;;;16.00;13.13;;;;;;;;;;6250868;22;20046;-83
2021/08/13 07:21:20;;;;;;;16.75;12.93;;;;;;;;;;6263059;22;20023;-84
2021/08/13 07:23:47;;;;;;;17.38;13.95;;;;;;;;;;6285670;22;20086;-83
2021/08/13 07:26:27;;;;;;;18.10;13.63;;;;;;;;;;6260328;22;20028;-84
2021/08/13 07:28:54;;;;;;;18.83;15.15;;;;;;;;;;6256290;22;20187;-84
2021/08/13 07:31:21;;;;;;;20.60;13.88;;;;;;;;;;6264762;22;20071;-83
2021/08/13 07:33:48;;;;;;;18.75;13.40;;;;;;;;;;6267813;22;20012;-84
2021/08/13 07:36:14;;;;;;;16.67;12.73;;;;;;;;;;6259061;22;20055;-84
2021/08/13 07:38:42;;;;;;;19.65;14.18;;;;;;;;;;6238874;23;20051;-84
2021/08/13 07:41:12;;;;;;;19.83;13.20;;;;;;;;;;6247773;22;20024;-85
2021/08/13 07:43:38;;;;;;;19.67;13.85;;;;;;;;;;6228473;23;20167;-84
2021/08/13 07:46:05;;;;;;;18.02;12.05;;;;;;;;;;6241164;23;20163;-84
2021/08/13 07:48:35;;;;;;;22.80;14.20;;;;;;;;;;6237574;23;20284;-84
2021/08/13 07:51:02;;;;;;;15.73;12.82;;;;;;;;;;6211114;23;20122;-84
2021/08/13 07:53:28;;;;;;;18.65;14.05;;;;;;;;;;6211973;23;20044;-84
2021/08/13 07:55:58;;;;;;;16.98;12.68;;;;;;;;;;6240303;23;20020;-84
2021/08/13 07:58:25;;;;;;;19.40;13.90;;;;;;;;;;6253054;23;20020;-84
2021/08/13 08:00:52;;;;;;;21.35;13.48;;;;;;;;;;6231939;23;20012;-83
2021/08/13 08:03:19;;;;;;;21.20;12.60;;;;;;;;;;6248130;23;20032;-83
2021/08/13 08:05:46;;;;;;;17.50;12.52;;;;;;;;;;6241921;23;20024;-85
2021/08/13 08:08:13;;;;;;;16.52;13.13;;;;;;;;;;6218161;23;20421;-86
2021/08/13 08:10:47;;;;;;;15.70;12.40;;;;;;;;;;6219662;23;20263;-86
2021/08/13 08:13:14;;;;;;;20.27;12.35;;;;;;;;;;6242533;23;20043;-87
2021/08/13 08:15:41;;;;;;;15.75;11.50;;;;;;;;;;6243359;23;20059;-87
2021/08/13 08:18:09;;;;;;;20.92;14.63;;;;;;;;;;6246226;23;20169;-85
2021/08/13 08:20:36;;;;;;;17.15;13.05;;;;;;;;;;6217315;23;20298;-87
2021/08/13 08:23:02;;;;;;;20.95;14.23;;;;;;;;;;6245101;23;20268;-87
2021/08/13 08:25:29;;;;;;;17.58;12.30;;;;;;;;;;6245338;23;20393;-88
2021/08/13 08:27:57;;;;;;;15.10;12.05;;;;;;;;;;6246675;23;20028;-87
2021/08/13 08:30:27;;;;;;;16.73;12.30;;;;;;;;;;6245756;23;20055;-87
2021/08/13 08:32:53;;;;;;;22.38;13.90;;;;;;;;;;6246776;23;20024;-86
2021/08/13 08:35:20;;;;;;;17.42;12.93;;;;;;;;;;6246350;22;20260;-87
2021/08/13 08:37:57;;;;;;;17.85;12.50;;;;;;;;;;6271896;22;20031;-88
2021/08/13 08:40:26;;;;;;;20.17;12.45;;;;;;;;;;6274741;22;20031;-87
2021/08/13 08:42:56;;;;;;;13.82;10.00;;;;;;;;;;6271625;22;20111;-87
2021/08/13 08:45:24;;;;;;;16.50;11.65;;;;;;;;;;6248568;22;20035;-87
2021/08/13 08:47:53;;;;;;;16.02;11.35;;;;;;;;;;6276047;22;20039;-87
2021/08/13 08:50:22;;;;;;;17.73;12.82;;;;;;;;;;6248885;22;20405;-87
2021/08/13 08:52:49;;;;;;;18.55;11.48;;;;;;;;;;6252019;22;20074;-87
2021/08/13 08:55:16;;;;;;;18.33;11.45;;;;;;;;;;6250556;22;20085;-88
2021/08/13 08:57:44;;;;;;;15.48;11.43;;;;;;;;;;6245423;22;20109;-86
2021/08/13 09:00:11;;;;;;;16.48;12.52;;;;;;;;;;6246479;22;20473;-87
2021/08/13 09:02:41;;;;;;;16.45;11.60;;;;;;;;;;6246181;22;20023;-88
2021/08/13 09:05:08;;;;;;;16.13;11.68;;;;;;;;;;6247741;22;20050;-88
2021/08/13 09:07:35;;;;;;;14.50;10.82;;;;;;;;;;6273700;22;20019;-86
2021/08/13 09:10:05;;;;;;;13.40;10.48;;;;;;;;;;6270796;22;20181;-86
2021/08/13 09:12:33;;;;;;;17.13;11.43;;;;;;;;;;6247195;22;20059;-87
2021/08/13 09:15:00;;;;;;;15.93;9.75;;;;;;;;;;6273726;22;20028;-87
2021/08/13 09:17:32;;;;;;;15.05;11.18;;;;;;;;;;6276247;22;20028;-88
2021/08/13 09:20:03;;;;;;;14.38;11.05;;;;;;;;;;6267009;22;20200;-86
2021/08/13 09:22:31;;;;;;;17.73;11.65;;;;;;;;;;6267053;22;20084;-88
2021/08/13 09:25:07;;;;;;;16.10;11.00;;;;;;;;;;6254724;22;20053;-88
2021/08/13 09:27:33;;;;;;;16.77;11.67;;;;;;;;;;6276134;22;20023;-86
2021/08/13 09:30:07;;;;;;;13.60;9.98;;;;;;;;;;6277657;22;20418;-87
2021/08/13 09:32:54;;;;;;;14.77;10.18;;;;;;;;;;6283121;22;20100;-88
2021/08/13 09:35:28;;;;;;;18.38;11.95;;;;;;;;;;6278511;22;20464;-86
2021/08/13 09:37:59;;;;;;;15.45;10.38;;;;;;;;;;6250875;22;20034;-87
2021/08/13 09:40:26;;;;;;;13.35;10.05;;;;;;;;;;6278993;22;20089;-87
2021/08/13 09:43:00;;;;;;;16.50;10.82;;;;;;;;;;6256238;22;20027;-87
2021/08/13 09:45:36;;;;;;;15.57;10.18;;;;;;;;;;6261598;22;20094;-87
2021/08/13 09:48:03;;;;;;;17.33;9.93;;;;;;;;;;6286817;22;20196;-87
2021/08/13 09:50:35;;;;;;;16.77;11.07;;;;;;;;;;6257883;22;20019;-87
2021/08/13 09:53:09;;;;;;;16.50;9.05;;;;;;;;;;6257847;22;20023;-87
2021/08/13 09:55:36;;;;;;;14.65;9.45;;;;;;;;;;6277663;22;20028;-87
2021/08/13 09:58:03;;;;;;;15.70;10.90;;;;;;;;;;6276532;22;20248;-88
2021/08/13 10:00:30;;;;;;;15.75;11.20;;;;;;;;;;6277211;22;20032;-85
2021/08/13 10:03:07;;;;;;;14.00;10.30;;;;;;;;;;6271556;22;20352;-85
2021/08/13 10:05:35;;;;;;;13.88;10.25;;;;;;;;;;6274406;22;20094;-84
2021/08/13 10:08:03;;;;;;;13.82;8.88;;;;;;;;;;6252793;22;20287;-85
2021/08/13 10:10:30;;;;;;;14.80;9.85;;;;;;;;;;6286025;22;20078;-83
2021/08/13 10:12:59;;;;;;;21.27;10.10;;;;;;;;;;6257907;22;20038;-85
2021/08/13 10:15:28;;;;;;;14.30;9.48;;;;;;;;;;6283656;22;20047;-84
2021/08/13 10:17:57;;;;;;;13.77;10.23;;;;;;;;;;6255500;22;20053;-84
2021/08/13 10:20:38;;;;;;;15.98;7.78;;;;;;;;;;6254932;22;20051;-84
2021/08/13 10:23:04;;;;;;;11.52;7.97;;;;;;;;;;6264176;22;20015;-87
2021/08/13 10:25:31;;;;;;;14.15;7.63;;;;;;;;;;6288865;22;20042;-87
2021/08/13 10:27:59;;;;;;;9.63;7.43;;;;;;;;;;6279243;22;20054;-88
2021/08/13 10:30:25;;;;;;;17.42;10.30;;;;;;;;;;6281136;22;20023;-87
2021/08/13 10:32:56;;;;;;;16.23;8.88;;;;;;;;;;6261465;22;20059;-87
2021/08/13 10:35:34;;;;;;;12.52;9.02;;;;;;;;;;6265794;22;20012;-87
2021/08/13 10:38:03;;;;;;;14.23;8.80;;;;;;;;;;6292227;22;20016;-86
2021/08/13 10:40:31;;;;;;;11.02;8.45;;;;;;;;;;6284896;22;20328;-87
2021/08/13 10:43:02;;;;;;;11.05;8.80;;;;;;;;;;6265231;22;20051;-86
2021/08/13 10:45:35;;;;;;;11.50;8.35;;;;;;;;;;6264286;22;20016;-87
2021/08/13 10:48:17;;;;;;;11.93;8.18;;;;;;;;;;6264994;22;20012;-86
2021/08/13 10:50:48;;;;;;;12.43;8.50;;;;;;;;;;6260846;22;20051;-90
2021/08/13 10:53:46;;;;;;;11.88;7.85;;;;;;;;;;6276551;22;20024;-88
2021/08/13 10:56:33;;;;;;;14.95;7.93;;;;;;;;;;6246403;22;20028;-88
2021/08/13 10:59:10;;;;;;;23.13;9.65;;;;;;;;;;6246275;22;20019;-87
2021/08/13 11:01:36;;;;;;;10.95;8.32;;;;;;;;;;6251272;22;20028;-85
2021/08/13 11:04:04;;;;;;;12.00;8.65;;;;;;;;;;6269850;22;20100;-86
2021/08/13 11:06:37;;;;;;;10.77;7.75;;;;;;;;;;6247980;22;20027;-87
2021/08/13 11:09:26;;;;;;;10.40;7.30;;;;;;;;;;6272867;22;20059;-86
2021/08/13 11:11:57;;;;;;;11.27;8.07;;;;;;;;;;6246866;22;20027;-87
2021/08/13 11:14:26;;;;;;;12.48;8.10;;;;;;;;;;6246651;22;20211;-88
2021/08/13 11:16:53;;;;;;;13.02;9.38;;;;;;;;;;6273759;22;20111;-88
2021/08/13 11:19:20;;;;;;;11.27;8.18;;;;;;;;;;6273847;22;20253;-87
2021/08/13 11:21:49;;;;;;;14.18;8.48;;;;;;;;;;6241904;22;20352;-87
2021/08/13 11:24:20;;;;;;;13.38;7.50;;;;;;;;;;6242843;22;20052;-88
2021/08/13 11:26:56;;;;;;;11.70;7.10;;;;;;;;;;6239455;22;20224;-87
2021/08/13 11:29:35;;;;;;;11.70;8.27;;;;;;;;;;6267826;22;20073;-87
2021/08/13 11:32:08;;;;;;;16.05;8.10;;;;;;;;;;6243532;22;20020;-88
2021/08/13 11:34:40;;;;;;;18.02;8.93;;;;;;;;;;6245504;22;20024;-87
2021/08/13 11:37:07;;;;;;;14.27;8.50;;;;;;;;;;6245226;22;20023;-86
2021/08/13 11:39:38;;;;;;;11.38;7.78;;;;;;;;;;6270274;22;20023;-88
2021/08/13 11:42:07;;;;;;;14.93;9.52;;;;;;;;;;6246947;22;20051;-87
2021/08/13 11:44:34;;;;;;;10.50;6.85;;;;;;;;;;6237092;22;20347;-87
2021/08/13 11:47:02;;;;;;;11.95;7.32;;;;;;;;;;6247005;22;20062;-88
2021/08/13 11:49:31;;;;;;;13.90;8.23;;;;;;;;;;6248250;22;20042;-87
2021/08/13 11:52:00;;;;;;;10.50;6.70;;;;;;;;;;6253725;22;20059;-87
2021/08/13 11:54:36;;;;;;;11.80;8.20;;;;;;;;;;6289893;22;19999;-87
2021/08/13 11:57:12;;;;;;;13.20;7.95;;;;;;;;;;6270792;22;20051;-87
2021/08/13 11:59:39;;;;;;;10.52;8.23;;;;;;;;;;6247284;22;20030;-88
2021/08/13 12:02:28;;;;;;;14.18;8.98;;;;;;;;;;6271543;22;20034;-86
2021/08/13 12:05:05;;;;;;;11.70;8.48;;;;;;;;;;6239478;22;20096;-87
2021/08/13 12:07:32;;;;;;;12.98;8.00;;;;;;;;;;6266313;22;20050;-87
2021/08/13 12:10:08;;;;;;;14.60;7.45;;;;;;;;;;6273481;22;20110;-87
2021/08/13 12:12:34;;;;;;;;;;;;;;;;;;6247966;22;20027;-87
2021/08/13 12:15:01;;;;;;;10.63;7.75;;;;;;;;;;6246854;22;19915;-87
2021/08/13 12:17:31;;;;;;;12.50;8.02;;;;;;;;;;6276609;22;20046;-87
2021/08/13 12:19:58;;;;;;;12.98;8.43;;;;;;;;;;6245561;22;20135;-87
2021/08/13 12:22:35;;;;;;;11.55;8.15;;;;;;;;;;6270834;22;20106;-87
2021/08/13 12:25:04;;;;;;;13.25;7.95;;;;;;;;;;6266084;22;20027;-88
2021/08/13 12:27:31;;;;;;;11.70;8.20;;;;;;;;;;6268641;22;20131;-87
2021/08/13 12:29:59;;;;;;;15.93;9.30;;;;;;;;;;6272904;22;20031;-87
2021/08/13 12:32:39;;;;;;;16.13;8.77;;;;;;;;;;6239617;23;20080;-87
2021/08/13 12:35:12;;;;;;;12.80;8.68;;;;;;;;;;6244269;22;20051;-86
2021/08/13 12:37:40;;;;;;;12.95;8.07;;;;;;;;;;6239755;23;20111;-87
2021/08/13 12:40:08;;;;;;;13.98;9.57;;;;;;;;;;6241104;23;20191;-86
2021/08/13 12:42:35;;;;;;;14.90;7.95;;;;;;;;;;6249675;22;20026;-86
2021/08/13 12:45:06;;;;;;;12.18;7.40;;;;;;;;;;6260571;22;20189;-87
2021/08/13 12:47:33;;;;;;;15.60;7.53;;;;;;;;;;6256879;22;20020;-86
2021/08/13 12:50:00;;;;;;;9.40;7.53;;;;;;;;;;6227473;22;20044;-86
2021/08/13 12:52:27;;;;;;;10.48;7.05;;;;;;;;;;6264784;22;20008;-87
2021/08/13 12:54:57;;;;;;;9.63;6.90;;;;;;;;;;6219620;22;20082;-87
2021/08/13 12:57:24;;;;;;;11.68;6.03;;;;;;;;;;6236615;23;20032;-87
2021/08/13 13:00:02;;;;;;;11.00;7.07;;;;;;;;;;6220069;22;20012;-87
2021/08/13 13:02:29;;;;;;;11.13;6.47;;;;;;;;;;6253820;22;20469;-87
2021/08/13 13:05:02;;;;;;;10.98;5.45;;;;;;;;;;6212027;23;20414;-87
2021/08/13 13:07:35;;;;;;;8.82;4.82;;;;;;;;;;6212687;23;20028;-87
2021/08/13 13:10:11;;;;;;;9.02;4.25;;;;;;;;;;6216070;23;20080;-87
2021/08/13 13:12:38;;;;;;;6.68;4.03;;;;;;;;;;6246339;23;20087;-84
2021/08/13 13:15:07;;;;;;;8.30;3.72;;;;;;;;;;6244531;23;20020;-84
2021/08/13 13:17:34;;;;;;;8.07;3.67;;;;;;;;;;6239465;23;20020;-84
2021/08/13 13:20:11;;;;;;;4.88;3.63;;;;;;;;;;6218494;23;20077;-84
2021/08/13 13:23:05;;;;;;;7.57;2.90;;;;;;;;;;6220548;23;20085;-84
2021/08/13 13:25:40;;;;;;;3.58;2.47;;;;;;;;;;6212604;23;20039;-84
2021/08/13 13:28:07;;;;;;;4.53;2.60;;;;;;;;;;6238953;23;20080;-84
2021/08/13 13:30:47;;;;;;;2.92;2.00;;;;;;;;;;6219789;23;20119;-83
2021/08/13 13:33:33;;;;;;;4.70;2.42;;;;;;;;;;6219207;23;20406;-84
2021/08/13 13:36:02;;;;;;;5.40;2.10;;;;;;;;;;6213798;23;20028;-83
2021/08/13 13:38:39;;;;;;;7.57;2.90;;;;;;;;;;6258587;23;20028;-84
2021/08/13 13:41:08;;;;;;;4.63;2.92;;;;;;;;;;6216530;23;20024;-84
2021/08/13 13:43:34;;;;;;;7.72;3.13;;;;;;;;;;6211567;23;20024;-84
2021/08/13 13:46:02;;;;;;;5.10;2.95;;;;;;;;;;6237525;23;20325;-84
2021/08/13 13:48:29;;;;;;;7.80;2.65;;;;;;;;;;6217118;23;20032;-84
2021/08/13 13:50:56;;;;;;;6.15;3.40;;;;;;;;;;6215194;23;20469;-85
2021/08/13 13:53:27;;;;;;;6.85;3.60;;;;;;;;;;6212710;23;20058;-83
2021/08/13 13:55:54;;;;;;;9.38;3.65;;;;;;;;;;6242757;23;20024;-84
2021/08/13 13:58:21;;;;;;;5.72;3.35;;;;;;;;;;6239305;23;20121;-84
2021/08/13 14:00:51;;;;;;;5.10;3.22;;;;;;;;;;6223245;23;20069;-84
2021/08/13 14:03:19;;;;;;;3.83;2.97;;;;;;;;;;6221766;23;20066;-83
2021/08/13 14:05:46;;;;;;;6.45;3.30;;;;;;;;;;6222879;23;20031;-84
2021/08/13 14:08:13;;;;;;;9.07;3.45;;;;;;;;;;6243183;23;20032;-85
2021/08/13 14:10:42;;;;;;;5.50;3.20;;;;;;;;;;6237627;23;20050;-83
2021/08/13 14:13:11;;;;;;;8.73;4.05;;;;;;;;;;6219719;23;20059;-83
2021/08/13 14:15:38;;;;;;;5.80;3.55;;;;;;;;;;6219411;23;20361;-84
2021/08/13 14:18:06;;;;;;;11.15;3.97;;;;;;;;;;6247259;23;20054;-84
2021/08/13 14:20:35;;;;;;;9.00;3.55;;;;;;;;;;6217287;23;20078;-86
2021/08/13 14:23:02;;;;;;;7.05;3.60;;;;;;;;;;6231804;23;20025;-84
2021/08/13 14:25:28;;;;;;;5.05;3.60;;;;;;;;;;6240842;23;20024;-83
2021/08/13 14:27:55;;;;;;;5.93;3.42;;;;;;;;;;6216697;23;20024;-84
2021/08/13 14:30:23;;;;;;;10.45;4.07;;;;;;;;;;6212169;23;20036;-84
2021/08/13 14:33:00;;;;;;;6.75;3.83;;;;;;;;;;6226540;22;20283;-83
2021/08/13 14:35:32;;;;;;;4.78;3.25;;;;;;;;;;6228074;22;20092;-84